Time;durP1;ratioP1;P1;durP2;ratioP2;P2;SDS_P1;SDS_P2;PMS_P1;PMS_P2;Temp;Humidity;BMP_temperature;BMP_pressure;BME280_temperature;BME280_humidity;BME280_pressure;Samples;Min_cycle;Max_cycle;Signal;HPM_P1;HPM_P2
2023/01/08 00:02:21;;;;;;;4.35;2.88;;;9.30;99.90;;;;;;4995406;28;20041;-77
2023/01/08 00:04:46;;;;;;;5.28;3.17;;;9.20;99.90;;;;;;4978604;28;20160;-78
2023/01/08 00:07:12;;;;;;;5.22;3.10;;;9.10;99.90;;;;;;4978974;28;20393;-78
2023/01/08 00:09:38;;;;;;;4.45;3.00;;;9.10;99.90;;;;;;4995042;28;20077;-80
2023/01/08 00:12:03;;;;;;;3.88;3.05;;;9.00;99.90;;;;;;4978858;28;20034;-79
2023/01/08 00:14:29;;;;;;;3.78;2.83;;;9.00;99.90;;;;;;4978871;28;20072;-84
2023/01/08 00:16:55;;;;;;;3.97;3.33;;;8.90;99.90;;;;;;4962451;28;20046;-78
2023/01/08 00:19:21;;;;;;;4.25;2.90;;;8.90;99.90;;;;;;4962538;28;20737;-78
2023/01/08 00:21:46;;;;;;;4.30;3.30;;;8.90;99.90;;;;;;4994007;28;20396;-79
2023/01/08 00:24:12;;;;;;;4.25;2.90;;;9.00;99.90;;;;;;4962523;28;20505;-79
2023/01/08 00:26:38;;;;;;;4.85;3.25;;;9.10;99.90;;;;;;4981318;28;20100;-79
2023/01/08 00:29:04;;;;;;;4.72;3.30;;;9.10;99.90;;;;;;4978719;28;20045;-78
2023/01/08 00:31:29;;;;;;;3.80;2.97;;;9.10;99.90;;;;;;4970823;28;20041;-79
2023/01/08 00:33:55;;;;;;;6.43;3.40;;;9.20;99.90;;;;;;4993298;28;20045;-79
2023/01/08 00:36:21;;;;;;;3.22;2.92;;;9.20;99.90;;;;;;4993994;28;20510;-78
2023/01/08 00:38:46;;;;;;;5.72;3.35;;;9.30;99.90;;;;;;4962010;28;20073;-81
2023/01/08 00:41:14;;;;;;;6.13;3.55;;;9.20;99.90;;;;;;4974492;28;20045;-79
2023/01/08 00:43:40;;;;;;;4.82;3.50;;;9.20;99.90;;;;;;4986871;28;20038;-79
2023/01/08 00:46:06;;;;;;;6.43;3.20;;;9.20;99.90;;;;;;4955593;28;20100;-81
2023/01/08 00:48:37;;;;;;;7.50;3.97;;;9.10;99.90;;;;;;4990316;28;20057;-81
2023/01/08 00:51:04;;;;;;;6.93;4.57;;;9.10;99.90;;;;;;4991063;28;20422;-80
2023/01/08 00:53:30;;;;;;;8.70;5.30;;;9.00;99.90;;;;;;4989076;28;20064;-81
2023/01/08 00:56:01;;;;;;;8.68;5.28;;;8.90;99.90;;;;;;4971282;28;20042;-80
2023/01/08 00:58:26;;;;;;;11.48;5.88;;;8.90;99.90;;;;;;4973067;28;20050;-79
2023/01/08 01:00:52;;;;;;;9.10;6.07;;;8.90;99.90;;;;;;4951613;28;20081;-80
2023/01/08 01:03:17;;;;;;;9.88;6.47;;;8.90;99.90;;;;;;4971088;28;20132;-79
2023/01/08 01:05:43;;;;;;;9.15;6.13;;;8.90;99.90;;;;;;4951992;28;20048;-78
2023/01/08 01:08:09;;;;;;;9.93;6.40;;;8.90;99.90;;;;;;4953622;28;20109;-78
2023/01/08 01:10:37;;;;;;;9.02;7.00;;;8.90;99.90;;;;;;4955390;28;20039;-79
2023/01/08 01:13:02;;;;;;;9.95;5.82;;;8.90;99.90;;;;;;4987583;28;20123;-79
2023/01/08 01:15:28;;;;;;;9.30;6.15;;;8.90;99.90;;;;;;4971873;28;20224;-79
2023/01/08 01:17:53;;;;;;;9.48;5.93;;;8.90;99.90;;;;;;4972072;28;20046;-78
2023/01/08 01:20:19;;;;;;;8.68;4.78;;;8.90;99.90;;;;;;4955716;28;20042;-80
2023/01/08 01:22:45;;;;;;;6.72;4.60;;;8.80;99.90;;;;;;4956170;28;20137;-79
2023/01/08 01:25:11;;;;;;;9.38;5.70;;;8.80;99.90;;;;;;4972385;28;20045;-78
2023/01/08 01:27:36;;;;;;;8.48;4.90;;;8.80;99.90;;;;;;4984399;28;20043;-80
2023/01/08 01:30:03;;;;;;;9.00;4.55;;;8.80;99.90;;;;;;4953090;28;20492;-79
2023/01/08 01:32:29;;;;;;;12.52;6.22;;;8.80;99.90;;;;;;4984540;28;20046;-78
2023/01/08 01:34:54;;;;;;;7.63;5.00;;;8.70;99.90;;;;;;4972125;28;20404;-78
2023/01/08 01:37:20;;;;;;;6.40;4.43;;;8.70;99.90;;;;;;4952588;28;20132;-80
2023/01/08 01:39:46;;;;;;;7.25;3.97;;;8.70;99.90;;;;;;4983033;28;20046;-78
2023/01/08 01:42:58;;;;;;;8.43;3.95;;;8.60;99.90;;;;;;4997898;28;20141;-79
2023/01/08 01:44:59;;;;;;;7.00;2.97;;;8.60;99.90;;;;;;4963274;28;20381;-78
2023/01/08 01:47:32;;;;;;;5.63;3.03;;;8.50;99.90;;;;;;4983692;28;20050;-79
2023/01/08 01:50:11;;;;;;;6.38;2.90;;;8.50;99.90;;;;;;4962517;28;20042;-79
2023/01/08 01:52:41;;;;;;;5.68;2.72;;;8.50;99.90;;;;;;4987542;28;20058;-80
2023/01/08 01:55:10;;;;;;;5.55;2.10;;;8.40;99.90;;;;;;4977154;28;20434;-79
2023/01/08 01:57:37;;;;;;;5.18;2.30;;;8.40;99.90;;;;;;4992660;28;20049;-79
2023/01/08 02:00:07;;;;;;;6.50;1.80;;;8.30;99.90;;;;;;4965970;28;20555;-79
2023/01/08 02:02:33;;;;;;;6.05;2.40;;;8.20;99.90;;;;;;4983241;28;20050;-78
2023/01/08 02:05:00;;;;;;;8.15;1.60;;;8.20;99.90;;;;;;4967550;28;20129;-79
2023/01/08 02:08:10;;;;;;;5.95;1.80;;;8.10;99.90;;;;;;4977504;28;20054;-79
2023/01/08 02:10:40;;;;;;;5.93;1.70;;;8.00;99.90;;;;;;4882333;29;20059;-80
2023/01/08 02:13:19;;;;;;;7.22;1.95;;;7.90;99.90;;;;;;4897811;29;20431;-79
2023/01/08 02:15:57;;;;;;;8.20;1.73;;;7.80;99.90;;;;;;4943703;28;20475;-84
2023/01/08 02:18:49;;;;;;;6.65;1.75;;;7.70;99.90;;;;;;4981594;28;20039;-80
2023/01/08 02:21:30;;;;;;;7.10;1.85;;;7.70;99.90;;;;;;4967011;28;20055;-79
2023/01/08 02:24:12;;;;;;;11.75;1.42;;;7.70;99.90;;;;;;4969137;28;20081;-80
2023/01/08 02:26:39;;;;;;;8.40;1.50;;;7.60;99.90;;;;;;4988812;28;20042;-79
2023/01/08 02:29:08;;;;;;;5.95;1.40;;;7.60;99.90;;;;;;4958981;28;20039;-78
2023/01/08 02:31:37;;;;;;;11.50;1.88;;;7.60;99.90;;;;;;4973968;28;20105;-79
2023/01/08 02:34:02;;;;;;;11.70;1.80;;;7.50;99.90;;;;;;4986811;28;20389;-78
2023/01/08 02:36:37;;;;;;;12.45;2.13;;;7.50;99.90;;;;;;4957201;28;20222;-78
2023/01/08 02:39:25;;;;;;;10.00;2.67;;;7.50;99.90;;;;;;4989815;28;20031;-78
2023/01/08 02:42:01;;;;;;;12.63;1.98;;;7.40;99.90;;;;;;4975973;28;20141;-82
2023/01/08 02:44:54;;;;;;;12.32;2.10;;;7.40;99.90;;;;;;4985644;28;20054;-79
2023/01/08 02:47:28;;;;;;;9.90;1.65;;;7.40;99.90;;;;;;4976890;28;20058;-79
2023/01/08 02:50:02;;;;;;;13.23;2.20;;;7.40;99.90;;;;;;4983002;28;20054;-79
2023/01/08 02:52:31;;;;;;;12.60;1.80;;;7.40;99.90;;;;;;4973528;28;20059;-79
2023/01/08 02:55:01;;;;;;;10.88;2.13;;;7.40;99.90;;;;;;4971391;28;20047;-79
2023/01/08 02:57:28;;;;;;;10.13;2.08;;;7.40;99.90;;;;;;4959396;28;20043;-79
2023/01/08 02:59:56;;;;;;;10.35;2.25;;;7.40;99.90;;;;;;4990896;28;20050;-82
2023/01/08 03:02:22;;;;;;;19.00;2.60;;;7.50;99.90;;;;;;4984185;28;20128;-80
2023/01/08 03:04:54;;;;;;;13.98;2.78;;;7.40;99.90;;;;;;4970436;28;20058;-79
2023/01/08 03:07:20;;;;;;;13.13;1.58;;;7.40;99.90;;;;;;4980108;28;20133;-80
2023/01/08 03:09:46;;;;;;;11.18;1.90;;;7.40;99.90;;;;;;4974265;28;20078;-79
2023/01/08 03:12:28;;;;;;;13.80;2.25;;;7.40;99.90;;;;;;4966983;28;20398;-80
2023/01/08 03:15:00;;;;;;;10.63;1.73;;;7.40;99.90;;;;;;4970703;28;20045;-85
2023/01/08 03:17:31;;;;;;;11.88;2.00;;;7.30;99.90;;;;;;4989406;28;20499;-79
2023/01/08 03:20:19;;;;;;;6.65;2.00;;;7.30;99.90;;;;;;4986967;28;20049;-79
2023/01/08 03:22:49;;;;;;;22.08;2.45;;;7.30;99.90;;;;;;4972772;28;20129;-81
2023/01/08 03:25:18;;;;;;;8.35;1.98;;;7.30;99.90;;;;;;4974689;28;20050;-80
2023/01/08 03:27:48;;;;;;;12.40;2.67;;;7.40;99.90;;;;;;5002934;28;20176;-79
2023/01/08 03:30:16;;;;;;;5.30;1.55;;;7.40;99.90;;;;;;4965496;28;20050;-78
2023/01/08 03:32:44;;;;;;;10.48;2.05;;;7.50;99.90;;;;;;4972176;28;20058;-79
2023/01/08 03:35:13;;;;;;;11.13;3.03;;;7.50;99.90;;;;;;4986168;28;20046;-81
2023/01/08 03:37:51;;;;;;;13.15;2.75;;;7.50;99.90;;;;;;4987426;28;20394;-78
2023/01/08 03:40:23;;;;;;;10.48;2.40;;;7.40;99.90;;;;;;4990165;28;20053;-78
2023/01/08 03:42:49;;;;;;;10.25;2.15;;;7.30;99.90;;;;;;4974169;28;20038;-78
2023/01/08 03:45:15;;;;;;;10.98;2.60;;;7.30;99.90;;;;;;4990788;28;20057;-78
2023/01/08 03:47:42;;;;;;;7.30;2.67;;;7.30;99.90;;;;;;4951912;28;20074;-79
2023/01/08 03:50:19;;;;;;;12.48;3.45;;;7.30;99.90;;;;;;4988767;28;20038;-79
2023/01/08 03:52:44;;;;;;;12.32;2.80;;;7.40;99.90;;;;;;4975811;28;20129;-79
2023/01/08 03:55:10;;;;;;;11.13;3.13;;;7.50;99.90;;;;;;4964740;28;20126;-82
2023/01/08 03:57:36;;;;;;;7.80;3.33;;;7.50;99.90;;;;;;4987614;28;20049;-79
2023/01/08 04:00:02;;;;;;;8.93;3.00;;;7.60;99.90;;;;;;4964736;28;20050;-80
2023/01/08 04:02:28;;;;;;;11.32;3.38;;;7.60;99.90;;;;;;4987884;28;20113;-78
2023/01/08 04:04:54;;;;;;;9.32;3.65;;;7.60;99.90;;;;;;4970098;28;20054;-79
2023/01/08 04:07:20;;;;;;;10.60;3.70;;;7.70;99.90;;;;;;4962029;28;20082;-79
2023/01/08 04:09:46;;;;;;;11.57;4.13;;;7.70;99.90;;;;;;4984771;28;20053;-78
2023/01/08 04:12:11;;;;;;;9.65;4.13;;;7.80;99.90;;;;;;4987654;28;20112;-80
2023/01/08 04:14:37;;;;;;;9.60;4.13;;;7.80;99.90;;;;;;4975121;28;20129;-79
2023/01/08 04:17:03;;;;;;;8.10;4.53;;;7.80;99.90;;;;;;4990368;28;20042;-83
2023/01/08 04:19:28;;;;;;;9.48;4.50;;;7.80;99.90;;;;;;4974215;28;20042;-79
2023/01/08 04:21:54;;;;;;;9.75;4.95;;;7.90;99.90;;;;;;4971875;28;20045;-78
2023/01/08 04:24:19;;;;;;;10.00;5.03;;;7.90;99.90;;;;;;4969277;28;20057;-79
2023/01/08 04:26:45;;;;;;;6.80;4.18;;;7.90;99.90;;;;;;4989016;28;20161;-78
2023/01/08 04:29:12;;;;;;;11.00;4.88;;;8.00;99.90;;;;;;4970836;28;20054;-78
2023/01/08 04:31:38;;;;;;;7.78;4.25;;;8.00;99.90;;;;;;4966823;28;20096;-78
2023/01/08 04:34:03;;;;;;;10.88;4.25;;;8.00;99.90;;;;;;4969457;28;20042;-81
2023/01/08 04:36:29;;;;;;;8.32;3.90;;;8.00;99.90;;;;;;4983975;28;20054;-78
2023/01/08 04:38:55;;;;;;;8.45;3.78;;;8.10;99.90;;;;;;4970589;28;20084;-79
2023/01/08 04:41:21;;;;;;;6.68;3.58;;;8.10;99.90;;;;;;4953072;28;20058;-78
2023/01/08 04:43:47;;;;;;;11.07;3.40;;;8.10;99.90;;;;;;4982391;28;20042;-79
2023/01/08 04:46:12;;;;;;;8.20;3.40;;;8.10;99.90;;;;;;4954111;28;20105;-78
2023/01/08 04:48:38;;;;;;;7.85;3.05;;;8.10;99.90;;;;;;4974764;28;20047;-78
2023/01/08 04:51:04;;;;;;;9.73;3.40;;;8.10;99.90;;;;;;4987070;28;20488;-78
2023/01/08 04:53:34;;;;;;;4.72;2.72;;;8.10;99.90;;;;;;4972705;28;20078;-79
2023/01/08 04:56:05;;;;;;;5.53;2.60;;;8.10;99.90;;;;;;4969829;28;20055;-79
2023/01/08 04:58:33;;;;;;;6.32;2.75;;;8.10;99.90;;;;;;4985826;28;20043;-79
2023/01/08 05:00:59;;;;;;;7.03;2.75;;;8.10;99.90;;;;;;4965883;28;20485;-79
2023/01/08 05:03:25;;;;;;;6.53;2.53;;;8.10;99.90;;;;;;4981526;28;20054;-78
2023/01/08 05:05:50;;;;;;;6.80;2.70;;;8.10;99.90;;;;;;4970935;28;20416;-79
2023/01/08 05:08:16;;;;;;;4.13;2.20;;;8.10;99.90;;;;;;4971571;28;20504;-78
2023/01/08 05:10:42;;;;;;;4.55;2.30;;;8.10;99.90;;;;;;4953451;28;20134;-80
2023/01/08 05:13:07;;;;;;;5.03;2.35;;;8.00;99.90;;;;;;4967313;28;20051;-78
2023/01/08 05:15:33;;;;;;;7.53;2.45;;;8.00;99.90;;;;;;4970080;28;20047;-78
2023/01/08 05:18:04;;;;;;;6.05;2.30;;;8.00;99.90;;;;;;4971574;28;20596;-79
2023/01/08 05:20:31;;;;;;;6.38;2.35;;;8.00;99.90;;;;;;4979233;28;20468;-79
2023/01/08 05:22:57;;;;;;;5.88;2.40;;;8.00;99.90;;;;;;4961531;28;20505;-79
2023/01/08 05:25:23;;;;;;;5.65;2.60;;;8.00;99.90;;;;;;4971111;28;20141;-81
2023/01/08 05:27:49;;;;;;;3.95;2.67;;;8.00;99.90;;;;;;4954829;28;20042;-79
2023/01/08 05:30:15;;;;;;;4.72;2.50;;;7.90;99.90;;;;;;4971004;28;20042;-79
2023/01/08 05:32:41;;;;;;;6.32;2.90;;;7.90;99.90;;;;;;4975307;28;20503;-82
2023/01/08 05:35:07;;;;;;;5.05;2.58;;;7.80;99.90;;;;;;4985776;28;20038;-80
2023/01/08 05:37:34;;;;;;;6.00;3.03;;;7.80;99.90;;;;;;4967100;28;20059;-79
2023/01/08 05:39:59;;;;;;;6.57;2.85;;;7.80;99.90;;;;;;4965084;28;20937;-80
2023/01/08 05:42:25;;;;;;;5.30;3.00;;;7.80;99.90;;;;;;4953861;28;20034;-79
2023/01/08 05:44:51;;;;;;;6.93;3.80;;;7.70;99.90;;;;;;4984013;28;20073;-79
2023/01/08 05:47:16;;;;;;;5.65;3.20;;;7.70;99.90;;;;;;4950294;28;20129;-84
2023/01/08 05:49:42;;;;;;;8.57;4.22;;;7.70;99.90;;;;;;4966844;28;20046;-80
2023/01/08 05:52:08;;;;;;;7.00;3.28;;;7.70;99.90;;;;;;4992519;28;20066;-79
2023/01/08 05:54:33;;;;;;;5.65;3.03;;;7.70;99.90;;;;;;4976328;28;20078;-80
2023/01/08 05:56:59;;;;;;;6.13;3.08;;;7.70;99.90;;;;;;4969503;28;20069;-80
2023/01/08 05:59:25;;;;;;;5.38;2.60;;;7.70;99.90;;;;;;4982805;28;20038;-79
2023/01/08 06:01:50;;;;;;;7.18;3.03;;;7.70;99.90;;;;;;4935980;28;20096;-83
2023/01/08 06:04:16;;;;;;;5.72;2.50;;;7.70;99.90;;;;;;4987405;28;20042;-85
2023/01/08 06:06:42;;;;;;;4.90;2.83;;;7.70;99.90;;;;;;4946334;28;20154;-83
2023/01/08 06:09:08;;;;;;;4.97;2.83;;;7.70;99.90;;;;;;4958496;28;20500;-79
2023/01/08 06:11:33;;;;;;;3.85;2.78;;;7.70;99.90;;;;;;4964783;28;20064;-80
2023/01/08 06:13:59;;;;;;;7.47;3.75;;;7.70;99.90;;;;;;4961837;28;20051;-79
2023/01/08 06:16:25;;;;;;;10.27;4.18;;;7.70;99.90;;;;;;4974092;28;20161;-83
2023/01/08 06:18:50;;;;;;;6.00;3.78;;;7.70;99.90;;;;;;4980042;28;20125;-80
2023/01/08 06:21:16;;;;;;;8.20;4.15;;;7.70;99.90;;;;;;4962689;28;20088;-85
2023/01/08 06:23:42;;;;;;;7.40;3.88;;;7.80;99.90;;;;;;4965818;28;20105;-82
2023/01/08 06:26:08;;;;;;;8.63;4.13;;;7.80;99.90;;;;;;4961693;28;20066;-82
2023/01/08 06:28:34;;;;;;;8.02;4.05;;;7.70;99.90;;;;;;4961158;28;20061;-82
2023/01/08 06:31:01;;;;;;;9.75;4.13;;;7.80;99.90;;;;;;4978133;28;20051;-81
2023/01/08 06:33:27;;;;;;;9.07;3.88;;;7.80;99.90;;;;;;4978099;28;20058;-84
2023/01/08 06:35:52;;;;;;;13.70;4.72;;;7.70;99.90;;;;;;4960927;28;20099;-80
2023/01/08 06:38:18;;;;;;;10.20;3.60;;;7.80;99.90;;;;;;4965297;28;20051;-79
2023/01/08 06:40:47;;;;;;;7.28;3.03;;;7.70;99.90;;;;;;4980255;28;21724;-83
2023/01/08 06:43:13;;;;;;;9.07;3.42;;;7.70;99.90;;;;;;4970193;28;20038;-79
2023/01/08 06:45:39;;;;;;;6.97;3.10;;;7.60;99.90;;;;;;4969954;28;20054;-80
2023/01/08 06:48:06;;;;;;;8.82;3.10;;;7.60;99.90;;;;;;4975487;28;20050;-80
2023/01/08 06:50:32;;;;;;;8.68;2.75;;;7.60;99.90;;;;;;4975372;28;20112;-81
2023/01/08 06:52:58;;;;;;;7.65;2.40;;;7.60;99.90;;;;;;4969934;28;20042;-81
2023/01/08 06:55:25;;;;;;;8.50;3.47;;;7.50;99.90;;;;;;4964920;28;20057;-84
2023/01/08 06:57:58;;;;;;;6.40;2.33;;;7.50;99.90;;;;;;4957095;28;20042;-79
2023/01/08 07:00:26;;;;;;;7.32;3.00;;;7.50;99.90;;;;;;4975682;28;20046;-85
2023/01/08 07:02:52;;;;;;;5.60;2.00;;;7.50;99.90;;;;;;4969923;28;20061;-82
2023/01/08 07:05:18;;;;;;;6.63;2.25;;;7.50;99.90;;;;;;4975482;28;20144;-80
2023/01/08 07:07:44;;;;;;;5.70;1.98;;;7.40;99.90;;;;;;4934506;28;20050;-79
2023/01/08 07:10:10;;;;;;;6.57;2.17;;;7.40;99.90;;;;;;4976457;28;20133;-80
2023/01/08 07:12:36;;;;;;;10.52;2.20;;;7.40;99.90;;;;;;4976051;28;20034;-80
2023/01/08 07:15:02;;;;;;;7.05;2.55;;;7.30;99.90;;;;;;4944381;28;20046;-80
2023/01/08 07:17:27;;;;;;;7.75;2.30;;;7.30;99.90;;;;;;4962252;28;20092;-80
2023/01/08 07:19:53;;;;;;;6.63;1.98;;;7.30;99.90;;;;;;4963053;28;20061;-80
2023/01/08 07:22:20;;;;;;;7.22;2.45;;;7.20;99.90;;;;;;4934728;28;20046;-79
2023/01/08 07:24:45;;;;;;;6.32;1.80;;;7.10;99.90;;;;;;4962966;28;20587;-79
2023/01/08 07:27:11;;;;;;;7.28;2.08;;;7.20;99.90;;;;;;4961091;28;20077;-79
2023/01/08 07:29:37;;;;;;;8.52;2.05;;;7.10;99.90;;;;;;4972406;28;20407;-78
2023/01/08 07:32:02;;;;;;;8.43;1.73;;;7.10;99.90;;;;;;4958080;28;20098;-79
2023/01/08 07:34:28;;;;;;;8.32;2.03;;;7.00;99.90;;;;;;4961182;28;20060;-84
2023/01/08 07:36:54;;;;;;;6.72;1.67;;;7.00;99.90;;;;;;4995242;28;20052;-79
2023/01/08 07:39:20;;;;;;;7.47;2.00;;;7.00;99.90;;;;;;4969783;28;20488;-80
2023/01/08 07:41:45;;;;;;;6.20;2.08;;;7.00;99.90;;;;;;4942540;28;20139;-80
2023/01/08 07:44:11;;;;;;;9.10;1.90;;;7.00;99.90;;;;;;4952544;28;20050;-80
2023/01/08 07:46:37;;;;;;;7.22;1.95;;;7.10;99.90;;;;;;4946183;28;20059;-79
2023/01/08 07:49:04;;;;;;;9.32;2.95;;;7.10;99.90;;;;;;4969794;28;20061;-79
2023/01/08 07:51:29;;;;;;;7.30;2.60;;;7.20;99.90;;;;;;4963666;28;20058;-82
2023/01/08 07:53:55;;;;;;;10.90;3.70;;;7.30;99.90;;;;;;4988171;28;20481;-80
2023/01/08 07:56:22;;;;;;;11.18;2.70;;;7.30;99.90;;;;;;4972434;28;20108;-79
2023/01/08 07:58:47;;;;;;;9.57;3.20;;;7.30;99.90;;;;;;4979378;28;20449;-79
2023/01/08 08:01:13;;;;;;;6.15;2.92;;;7.20;99.90;;;;;;4975457;28;20050;-79
2023/01/08 08:03:40;;;;;;;9.98;3.50;;;7.10;99.90;;;;;;4972321;28;20051;-79
2023/01/08 08:06:07;;;;;;;11.05;3.70;;;7.10;99.90;;;;;;4973096;28;20050;-75
2023/01/08 08:08:34;;;;;;;11.52;3.90;;;7.00;99.90;;;;;;4989956;28;20042;-82
2023/01/08 08:11:00;;;;;;;13.05;3.60;;;7.00;99.90;;;;;;4991711;28;20349;-76
2023/01/08 08:13:25;;;;;;;10.43;3.50;;;6.90;99.90;;;;;;4988467;28;20047;-76
2023/01/08 08:15:51;;;;;;;11.40;3.00;;;6.80;99.90;;;;;;4981345;28;20053;-77
2023/01/08 08:18:17;;;;;;;10.43;3.28;;;6.80;99.90;;;;;;4966830;28;20053;-77
2023/01/08 08:20:43;;;;;;;10.38;3.47;;;6.80;99.90;;;;;;4991050;28;20403;-77
2023/01/08 08:23:13;;;;;;;7.15;3.10;;;6.70;99.90;;;;;;4974701;28;20157;-77
2023/01/08 08:25:40;;;;;;;7.80;3.10;;;6.70;99.90;;;;;;5001964;28;20058;-77
2023/01/08 08:28:08;;;;;;;9.45;3.53;;;6.70;99.90;;;;;;5003280;28;20038;-78
2023/01/08 08:30:34;;;;;;;9.73;2.97;;;6.70;99.90;;;;;;4975278;28;20057;-78
2023/01/08 08:33:03;;;;;;;8.73;2.72;;;6.70;99.90;;;;;;4990376;28;20057;-79
2023/01/08 08:35:30;;;;;;;8.90;3.10;;;6.60;99.90;;;;;;4969233;28;20043;-77
2023/01/08 08:37:56;;;;;;;13.43;3.38;;;6.60;99.90;;;;;;4989027;28;20053;-79
2023/01/08 08:40:23;;;;;;;8.20;3.10;;;6.60;99.90;;;;;;4975111;28;20438;-78
2023/01/08 08:43:01;;;;;;;9.40;2.65;;;6.60;99.90;;;;;;4972409;28;20121;-76
2023/01/08 08:45:28;;;;;;;10.52;2.75;;;6.60;99.90;;;;;;4990243;28;20046;-82
2023/01/08 08:47:54;;;;;;;7.88;2.75;;;6.60;99.90;;;;;;4997067;28;20046;-81
2023/01/08 08:50:20;;;;;;;10.15;2.85;;;6.60;99.90;;;;;;4971600;28;20051;-84
2023/01/08 08:52:47;;;;;;;8.65;2.90;;;6.60;99.90;;;;;;4970117;28;20144;-80
2023/01/08 08:55:16;;;;;;;8.23;2.85;;;6.70;99.90;;;;;;4971713;28;20050;-80
2023/01/08 08:57:43;;;;;;;9.68;2.88;;;6.60;99.90;;;;;;4943102;28;20051;-86
2023/01/08 09:00:09;;;;;;;9.82;2.75;;;6.70;99.90;;;;;;4970744;28;20096;-84
2023/01/08 09:02:35;;;;;;;7.03;2.50;;;6.60;99.90;;;;;;4955517;28;20149;-78
2023/01/08 09:05:01;;;;;;;9.93;2.20;;;6.70;99.90;;;;;;4972094;28;20129;-81
2023/01/08 09:07:26;;;;;;;7.53;2.22;;;6.60;99.90;;;;;;4972891;28;20051;-82
2023/01/08 09:09:52;;;;;;;5.45;2.30;;;6.60;99.90;;;;;;4973671;28;20050;-82
2023/01/08 09:12:18;;;;;;;7.63;3.28;;;6.60;99.90;;;;;;4975243;28;20373;-80
2023/01/08 09:14:43;;;;;;;7.93;2.22;;;6.80;99.90;;;;;;4989381;28;20050;-88
2023/01/08 09:17:09;;;;;;;9.35;2.20;;;6.60;99.90;;;;;;4962192;28;20472;-80
2023/01/08 09:19:37;;;;;;;5.90;2.28;;;6.60;99.90;;;;;;4969016;28;20043;-81
2023/01/08 09:22:03;;;;;;;6.15;1.90;;;6.70;99.90;;;;;;4968215;28;20049;-80
2023/01/08 09:24:31;;;;;;;7.18;2.20;;;6.70;99.90;;;;;;4966647;28;20058;-83
2023/01/08 09:26:57;;;;;;;9.77;4.18;;;6.70;99.90;;;;;;4951054;28;20117;-84
2023/01/08 09:29:23;;;;;;;11.13;6.13;;;6.80;99.90;;;;;;4952182;28;20840;-81
2023/01/08 09:31:49;;;;;;;11.32;3.70;;;6.80;99.90;;;;;;4978897;28;20112;-82
2023/01/08 09:34:14;;;;;;;8.05;3.22;;;6.80;99.90;;;;;;4962493;28;20062;-81
2023/01/08 09:36:40;;;;;;;10.38;2.60;;;6.80;99.90;;;;;;4981533;28;20050;-79
2023/01/08 09:39:06;;;;;;;7.88;4.00;;;6.80;99.90;;;;;;4981091;28;20395;-78
2023/01/08 09:41:34;;;;;;;11.20;5.07;;;6.80;99.90;;;;;;4983374;28;20050;-82
2023/01/08 09:44:03;;;;;;;11.10;3.20;;;6.80;99.90;;;;;;4978171;28;20046;-80
2023/01/08 09:46:29;;;;;;;9.75;4.07;;;6.80;99.90;;;;;;4966416;28;20081;-80
2023/01/08 09:48:59;;;;;;;11.93;4.40;;;6.80;99.90;;;;;;4964128;28;20488;-80
2023/01/08 09:51:35;;;;;;;9.50;3.88;;;6.90;99.90;;;;;;4963585;28;20113;-81
2023/01/08 09:54:01;;;;;;;6.03;1.83;;;6.90;99.90;;;;;;4981298;28;20050;-80
2023/01/08 09:56:28;;;;;;;11.82;4.57;;;6.80;99.90;;;;;;4982567;28;20188;-82
2023/01/08 09:58:58;;;;;;;6.82;1.88;;;6.90;99.90;;;;;;4963023;28;20045;-82
2023/01/08 10:01:27;;;;;;;9.02;1.98;;;6.90;99.90;;;;;;4981580;28;20077;-75
2023/01/08 10:04:13;;;;;;;7.95;2.13;;;6.80;99.90;;;;;;4979935;28;20173;-80
2023/01/08 10:07:16;;;;;;;10.75;1.80;;;7.00;99.90;;;;;;4990316;28;20050;-78
2023/01/08 10:09:42;;;;;;;9.80;1.80;;;7.00;99.90;;;;;;4976978;28;20080;-85
2023/01/08 10:12:11;;;;;;;8.18;2.00;;;7.00;99.90;;;;;;4979341;28;20492;-79
2023/01/08 10:14:46;;;;;;;9.88;1.92;;;7.00;99.90;;;;;;4980799;28;20058;-81
2023/01/08 10:17:41;;;;;;;9.10;1.80;;;7.00;99.90;;;;;;4984650;28;20410;-78
2023/01/08 10:20:15;;;;;;;11.18;2.97;;;7.10;99.90;;;;;;4957173;28;20067;-82
2023/01/08 10:22:41;;;;;;;7.40;2.10;;;7.10;99.90;;;;;;4979031;28;21597;-83
2023/01/08 10:25:11;;;;;;;10.02;1.70;;;7.10;99.90;;;;;;4988288;28;20149;-83
2023/01/08 10:27:47;;;;;;;10.18;1.85;;;7.20;99.90;;;;;;4985224;28;20042;-84
2023/01/08 10:30:19;;;;;;;10.68;2.25;;;7.20;99.90;;;;;;4980594;28;20078;-80
2023/01/08 10:32:54;;;;;;;8.88;2.03;;;7.30;99.90;;;;;;4980673;28;20042;-81
2023/01/08 10:35:23;;;;;;;13.27;2.80;;;7.30;99.90;;;;;;4964581;28;20051;-80
2023/01/08 10:37:49;;;;;;;9.80;3.00;;;7.40;99.90;;;;;;4984258;28;20042;-80
2023/01/08 10:40:40;;;;;;;14.55;3.08;;;7.40;99.90;;;;;;4950685;28;20046;-86
2023/01/08 10:43:12;;;;;;;8.75;1.85;;;7.40;99.90;;;;;;4969984;28;20465;-85
2023/01/08 10:45:39;;;;;;;9.85;2.38;;;7.50;99.90;;;;;;4981198;28;20050;-83
2023/01/08 10:48:07;;;;;;;15.88;3.33;;;7.50;99.90;;;;;;4949166;28;20409;-81
2023/01/08 10:50:33;;;;;;;10.32;2.33;;;7.50;99.90;;;;;;4977352;28;20570;-86
2023/01/08 10:53:24;;;;;;;9.65;1.95;;;7.50;99.90;;;;;;4952557;28;20104;-81
2023/01/08 10:56:04;;;;;;;11.25;2.30;;;7.60;99.90;;;;;;4968234;28;20057;-82
2023/01/08 10:58:40;;;;;;;15.50;3.35;;;7.70;99.90;;;;;;4962131;28;20042;-80
2023/01/08 11:01:32;;;;;;;11.13;2.72;;;7.70;99.90;;;;;;4956708;28;20620;-84
2023/01/08 11:04:03;;;;;;;8.77;2.25;;;7.70;99.90;;;;;;4958323;28;20133;-87
2023/01/08 11:06:37;;;;;;;7.93;2.05;;;7.80;99.90;;;;;;4962823;28;20060;-79
2023/01/08 11:09:22;;;;;;;11.85;2.65;;;7.80;99.90;;;;;;4958342;28;20473;-84
2023/01/08 11:11:48;;;;;;;12.02;2.63;;;7.80;99.90;;;;;;4961253;28;20057;-82
2023/01/08 11:14:20;;;;;;;9.07;2.10;;;7.90;99.90;;;;;;4981633;28;20050;-79
2023/01/08 11:16:47;;;;;;;11.18;3.25;;;7.90;99.90;;;;;;4965533;28;20054;-82
2023/01/08 11:19:24;;;;;;;11.52;2.08;;;7.90;99.90;;;;;;4950253;28;20129;-83
2023/01/08 11:22:12;;;;;;;13.70;2.10;;;7.90;99.90;;;;;;4963682;28;20072;-80
2023/01/08 11:24:39;;;;;;;10.63;2.10;;;8.00;99.90;;;;;;4955868;28;20761;-80
2023/01/08 11:27:04;;;;;;;10.30;1.70;;;8.10;99.90;;;;;;4946681;28;20088;-80
2023/01/08 11:29:47;;;;;;;15.90;2.13;;;8.10;99.90;;;;;;4963867;28;20046;-80
2023/01/08 11:32:40;;;;;;;11.73;2.35;;;8.10;99.90;;;;;;4960211;28;20046;-80
2023/01/08 11:35:14;;;;;;;15.63;2.53;;;8.10;99.90;;;;;;4957286;28;20082;-85
2023/01/08 11:37:47;;;;;;;9.40;2.20;;;8.00;99.90;;;;;;4969453;28;20438;-81
2023/01/08 11:40:38;;;;;;;10.55;2.70;;;8.10;99.90;;;;;;4962580;28;20049;-81
2023/01/08 11:43:17;;;;;;;8.32;2.17;;;8.10;99.90;;;;;;4964353;28;20081;-83
2023/01/08 11:46:25;;;;;;;10.95;1.58;;;8.10;99.90;;;;;;4963854;28;20397;-81
2023/01/08 11:49:06;;;;;;;;;;;8.10;99.90;;;;;;4974068;28;20162;-79
2023/01/08 11:51:40;;;;;;;12.90;2.90;;;8.20;99.90;;;;;;4973396;28;19965;-79
2023/01/08 11:54:24;;;;;;;9.45;1.70;;;8.20;99.90;;;;;;4981783;28;20050;-80
2023/01/08 11:57:08;;;;;;;16.48;2.50;;;8.30;99.90;;;;;;4972640;28;20153;-80
2023/01/08 11:59:40;;;;;;;13.70;1.92;;;8.50;99.90;;;;;;4987668;28;20472;-82
2023/01/08 12:02:29;;;;;;;11.02;2.47;;;8.50;99.90;;;;;;4988763;28;20042;-88
2023/01/08 12:05:22;;;;;;;17.40;3.80;;;8.50;99.90;;;;;;4988200;28;20042;-84
2023/01/08 12:07:58;;;;;;;10.85;2.13;;;8.50;99.90;;;;;;4975325;28;20436;-82
2023/01/08 12:10:30;;;;;;;10.45;2.05;;;8.60;99.90;;;;;;4991621;28;20052;-82
2023/01/08 12:13:05;;;;;;;7.68;2.08;;;8.80;99.90;;;;;;4991532;28;20050;-82
2023/01/08 12:15:57;;;;;;;10.63;1.95;;;8.90;99.90;;;;;;4975577;28;20133;-82
2023/01/08 12:19:01;;;;;;;14.68;2.22;;;8.90;99.90;;;;;;4970389;28;20058;-83
2023/01/08 12:21:32;;;;;;;10.60;2.00;;;8.90;99.90;;;;;;4972723;28;20492;-83
2023/01/08 12:24:16;;;;;;;12.88;1.98;;;8.80;99.90;;;;;;4970665;28;20042;-85
2023/01/08 12:27:01;;;;;;;12.48;2.63;;;8.70;99.90;;;;;;4974742;28;20049;-83
2023/01/08 12:30:25;;;;;;;10.68;2.75;;;8.60;99.90;;;;;;4967786;28;20697;-85
2023/01/08 12:33:03;;;;;;;12.43;2.78;;;8.50;99.90;;;;;;4897385;29;20063;-86
2023/01/08 12:35:41;;;;;;;11.25;2.15;;;8.40;99.90;;;;;;4967030;28;20061;-82
2023/01/08 12:38:17;;;;;;;10.45;2.10;;;8.40;99.90;;;;;;4985003;28;20455;-83
2023/01/08 12:41:03;;;;;;;14.52;2.38;;;8.40;99.90;;;;;;4980695;28;20053;-80
2023/01/08 12:43:54;;;;;;;16.23;3.85;;;8.50;99.90;;;;;;4982611;28;20052;-81
2023/01/08 12:46:20;;;;;;;14.05;2.53;;;8.50;99.90;;;;;;4966375;28;20069;-82
2023/01/08 12:48:49;;;;;;;9.05;2.40;;;8.50;99.90;;;;;;4969449;28;20062;-81
2023/01/08 12:51:25;;;;;;;11.75;2.22;;;8.40;99.90;;;;;;4987887;28;20740;-85
2023/01/08 12:53:59;;;;;;;14.13;2.20;;;8.50;99.90;;;;;;4983225;28;20104;-81
2023/01/08 12:56:34;;;;;;;13.55;2.50;;;8.60;99.90;;;;;;4982850;28;20062;-81
2023/01/08 12:59:31;;;;;;;11.90;2.30;;;8.60;99.90;;;;;;4974749;28;20045;-81
2023/01/08 13:02:17;;;;;;;7.65;1.70;;;8.50;99.90;;;;;;4967742;28;20085;-82
2023/01/08 13:04:47;;;;;;;10.50;2.53;;;8.50;99.90;;;;;;4985649;28;20061;-82
2023/01/08 13:07:26;;;;;;;4.18;1.80;;;8.40;99.90;;;;;;4983925;28;20449;-88
2023/01/08 13:10:30;;;;;;;9.10;1.80;;;8.50;99.90;;;;;;4988224;28;20053;-81